Flight Track Log - Related Links

Times and Time Zones

All times are in EDT time to prevent confusion due to time zone crossing. See the TRS208 flight status page for this flight to view local times or setup timezone preferences in your user account.


Time Position Orientation Groundspeed Altitude Reporting Facility
EDT Latitude Longitude Course Direction KTS MPH feet Rate Location/Type
Fri 03:56:40 PM 29.9981 -90.2939 309° West 187 215 1,000  Level Houston Center
Fri 03:57:34 PM 30.0289 -90.3383 309° West 216 249 2,400 1,537 Climbing Houston Center
Fri 03:58:02 PM 30.0556 -90.3567 329° Northwest 232 267 3,100 1,881 Climbing Houston Center
Fri 03:58:41 PM 30.0928 -90.3789 333° Northwest 252 290 4,500 2,095 Climbing Houston Center
Fri 03:59:05 PM 30.1153 -90.3950 328° Northwest 239 275 5,300 1,953 Climbing Houston Center
Fri 04:00:07 PM 30.1886 -90.3867 North 259 298 7,300 2,468 Climbing Houston Center
Fri 04:01:09 PM 30.2447 -90.3336 39° Northeast 261 300 10,400 2,468 Climbing Houston Center
Fri 04:02:11 PM 30.2919 -90.2767 46° Northeast 251 289 12,400 1,403 Climbing Houston Center
Fri 04:03:13 PM 30.3356 -90.1792 63° Northeast 281 323 13,300 864 Climbing Houston Center
Fri 04:04:16 PM 30.3811 -90.0803 62° Northeast 333 383 14,200 960 Climbing Houston Center
Fri 04:05:18 PM 30.4286 -89.9717 63° Northeast 367 422 15,300 1,161 Climbing Houston Center
Fri 04:06:20 PM 30.4797 -89.8558 63° Northeast 393 452 16,600 1,452 Climbing Houston Center
Fri 04:07:22 PM 30.5322 -89.7400 62° Northeast 398 458 18,300 1,500 Climbing Houston Center
Fri 04:08:24 PM 30.5881 -89.6236 61° Northeast 406 467 19,700 1,500 Climbing Houston Center
Fri 04:09:26 PM 30.6486 -89.5069 59° Northeast 419 482 21,400 1,452 Climbing Houston Center
Fri 04:10:28 PM 30.7092 -89.3897 59° Northeast 423 487 22,700 1,355 Climbing Houston Center
Fri 04:11:30 PM 30.7831 -89.2456 59° Northeast 432 497 24,200 1,210 Climbing Houston Center
Fri 04:12:32 PM 30.8464 -89.1186 60° Northeast 450 518 25,200 1,104 Climbing Houston Center
Fri 04:13:35 PM 30.9119 -88.9911 59° Northeast 457 526 26,500 1,104 Climbing Houston Center
Fri 04:14:37 PM 30.9717 -88.8725 60° Northeast 460 529 27,500 1,161 Climbing Houston Center
Fri 04:15:39 PM 31.0511 -88.7153 59° Northeast 465 535 28,900 1,161 Climbing Houston Center
Fri 04:16:41 PM 31.1103 -88.6031 58° Northeast 466 536 29,900 1,258 Climbing Houston Center
Fri 04:17:43 PM 31.1886 -88.4475 59° Northeast 462 532 31,500 1,452 Climbing Houston Center
Fri 04:18:45 PM 31.2517 -88.3236 59° Northeast 461 531 32,900 726 Climbing Houston Center
Fri 04:19:47 PM 31.3167 -88.1936 60° Northeast 457 526 33,000 48 Climbing Houston Center
Fri 04:20:49 PM 31.3811 -88.0642 60° Northeast 460 529 33,000  Level Houston Center
Fri 04:21:51 PM 31.4544 -87.9422 55° Northeast 457 526 33,000  Level Houston Center
Fri 04:22:54 PM 31.5286 -87.8192 55° Northeast 460 529 33,000  Level Houston Center
Fri 04:23:56 PM 31.6156 -87.6747 55° Northeast 455 524 33,000  Level Houston Center
Fri 04:24:56 PM 31.6925 -87.5558 53° Northeast 457 526 33,000  Level Atlanta Center
Fri 04:25:56 PM 31.7669 -87.4317 55° Northeast 457 526 33,000 -100 Level Atlanta Center
Fri 04:26:56 PM 31.8283 -87.3217 57° Northeast 457 526 32,800 -600 Descending Atlanta Center
Fri 04:27:56 PM 31.8939 -87.2067 56° Northeast 440 506 31,800 -1,050 Descending Atlanta Center
Fri 04:28:56 PM 31.9569 -87.1011 55° Northeast 415 478 30,700 -1,000 Descending Atlanta Center
Fri 04:29:56 PM 32.0203 -86.9931 55° Northeast 400 460 29,800 -850 Descending Atlanta Center
Fri 04:30:56 PM 32.0833 -86.8872 55° Northeast 394 453 29,000 -400 Descending Atlanta Center
Fri 04:31:56 PM 32.1417 -86.7886 55° Northeast 382 440 29,000 -300 Level Atlanta Center
Fri 04:32:56 PM 32.2108 -86.6803 53° Northeast 374 430 28,400 -850 Descending Atlanta Center
Fri 04:33:56 PM 32.2714 -86.5861 53° Northeast 374 430 27,300 -700 Descending Atlanta Center
Fri 04:34:56 PM 32.3256 -86.4894 56° Northeast 368 423 27,000 -450 Descending Atlanta Center
Fri 04:35:56 PM 32.3689 -86.3997 60° Northeast 347 399 26,400 -800 Descending Atlanta Center
Fri 04:36:56 PM 32.4208 -86.3050 57° Northeast 338 389 25,400 -900 Descending Atlanta Center
Fri 04:37:56 PM 32.4789 -86.2106 54° Northeast 338 389 24,600 -900 Descending Atlanta Center
Fri 04:38:56 PM 32.5369 -86.1108 55° Northeast 343 395 23,600 -1,000 Descending Atlanta Center
Fri 04:39:56 PM 32.5864 -86.0183 58° Northeast 348 400 22,600 -1,000 Descending Atlanta Center
Fri 04:40:56 PM 32.6358 -85.9331 55° Northeast 332 382 21,600 -800 Descending Atlanta Center
Fri 04:41:56 PM 32.6853 -85.8478 55° Northeast 320 368 21,000 -300 Descending Atlanta Center
Fri 04:42:56 PM 32.7322 -85.7672 55° Northeast 306 352 21,000  Level Atlanta Center
Fri 04:43:56 PM 32.7794 -85.6819 57° Northeast 301 346 21,000 -100 Level Atlanta Center
Fri 04:44:56 PM 32.8222 -85.5936 60° Northeast 301 346 20,800 -1,300 Descending Atlanta Center
Fri 04:45:56 PM 32.7858 -85.4967 114° Southeast 270 311 18,400 -2,400 Descending Atlanta Center
Fri 04:46:56 PM 32.7975 -85.3956 82° East 297 342 16,000 -1,950 Descending Atlanta Center
Fri 04:47:56 PM 32.8753 -85.3347 33° Northeast 290 334 14,500 -1,350 Descending Atlanta Center
Fri 04:48:56 PM 32.9553 -85.2742 32° Northeast 302 348 13,300 -1,050 Descending Atlanta Center
Fri 04:49:56 PM 33.0269 -85.1983 42° Northeast 325 374 12,400 -650 Descending Atlanta Center
Fri 04:50:56 PM 33.0964 -85.1297 40° Northeast 351 404 12,000 -200 Descending Atlanta Center
Fri 04:51:56 PM 33.1661 -85.0514 43° Northeast 353 406 12,000 -400 Level Atlanta Center
Fri 04:52:56 PM 33.2250 -84.9775 46° Northeast 318 366 11,200 -1,250 Descending Atlanta Center
Fri 04:53:56 PM 33.3025 -84.9286 28° Northeast 288 331 9,500 -1,600 Descending Atlanta Center
Fri 04:54:56 PM 33.3758 -84.9019 17° North 274 315 8,000 -750 Descending Atlanta Center
Fri 04:55:56 PM 33.4492 -84.8728 18° North 268 308 8,000 -550 Level Atlanta Center
Fri 04:56:56 PM 33.5181 -84.8486 16° North 268 308 6,900 -1,000 Descending Atlanta Center
Fri 04:57:56 PM 33.5894 -84.8219 17° North 262 302 6,000 -450 Descending Atlanta Center
Fri 04:58:56 PM 33.6272 -84.7622 53° Northeast 229 264 6,000 -382 Level Atlanta Center
Fri 04:59:46 PM 33.6333 -84.7000 83° East 222 255 5,300 -1,200 Descending Atlanta TRACON
Fri 05:00:51 PM 33.6333 -84.6167 90° East 223 257 3,700 -1,248 Descending Atlanta TRACON
Fri 05:01:51 PM 33.6333 -84.5500 90° East 189 217 2,700 -950 Descending Atlanta TRACON
Fri 05:02:51 PM 33.6333 -84.5000 90° East 155 178 1,800 -900 Descending Atlanta TRACON
Fri 05:04:00 PM 33.6367 -84.4279 90° East  Level Estimated
Fri 05:11:00 PM 33.6367 -84.4279 90° East  Level Estimated
Fri 05:12:00 PM 33.6367 -84.4279 90° East  Level Estimated

Login

Don't have an account? Register now (free) for customized features, flight alerts, and more!